Arba, Indiana
Current Conditions -  °F | °C
As of 12:15 PM on Saturday 25 Oct 2014 (Local Time) from KVES Reporting Station
Clear Clear  
Wind Chill: 19°   Ceiling: Unl
Heat Index: 19°   Visibility: 10mi
Dew Point: 13°   Wind: 13mph
Humidity: 68%   Direction: 250°WSW
Pressure: 29.92"   Gusts: 17mph
Location:  40.0606°N, 84.9258°W
Report Text: KVES 251615Z AUTO 25011G15KT 10SM CLR 19/13 A2992 RMK AO2
Loading
Personal Weather Stations






























Interactive Weather Map
Tropical Storm Tracking
New forecast layout! Learn more

10-Day Weather Forecast

Advertisements
Track Severe Weather on mobile